Time;durP1;ratioP1;P1;durP2;ratioP2;P2;SDS_P1;SDS_P2;PMS_P1;PMS_P2;Temp;Humidity;BMP_temperature;BMP_pressure;BME280_temperature;BME280_humidity;BME280_pressure;Samples;Min_cycle;Max_cycle;Signal;HPM_P1;HPM_P2
2021/12/18 00:01:24;;;;;;;10.80;5.53;;;;;;;4.47;100.00;100335.19;4989024;28;20104;-59
2021/12/18 00:03:49;;;;;;;10.20;6.20;;;;;;;4.41;100.00;100351.94;4994764;28;20026;-56
2021/12/18 00:06:15;;;;;;;11.43;6.73;;;;;;;4.38;100.00;100347.59;4991781;28;20057;-59
2021/12/18 00:08:41;;;;;;;14.93;7.07;;;;;;;4.49;100.00;100351.38;4990260;28;20026;-58
2021/12/18 00:11:07;;;;;;;10.97;6.80;;;;;;;4.45;100.00;100357.16;4989389;28;20215;-58
2021/12/18 00:13:33;;;;;;;10.57;6.00;;;;;;;4.42;100.00;100359.56;4994613;28;20078;-58
2021/12/18 00:15:58;;;;;;;12.43;7.40;;;;;;;4.44;100.00;100362.16;4998045;28;20512;-58
2021/12/18 00:18:24;;;;;;;14.43;6.73;;;;;;;4.48;100.00;100361.47;4988387;28;20447;-58
2021/12/18 00:20:50;;;;;;;12.07;6.83;;;;;;;4.41;100.00;100362.91;4989335;28;20033;-59
2021/12/18 00:23:16;;;;;;;12.00;7.77;;;;;;;4.45;100.00;100366.44;4994245;28;20504;-60
2021/12/18 00:25:42;;;;;;;10.53;7.27;;;;;;;4.53;100.00;100370.09;4995872;28;20118;-60
2021/12/18 00:28:09;;;;;;;12.87;7.17;;;;;;;4.50;100.00;100362.34;4993694;28;20501;-59
2021/12/18 00:30:34;;;;;;;14.27;7.77;;;;;;;4.49;100.00;100361.53;4990990;28;20042;-59
2021/12/18 00:33:02;;;;;;;14.37;7.97;;;;;;;4.53;100.00;100375.19;5001108;28;20025;-60
2021/12/18 00:35:27;;;;;;;11.27;6.33;;;;;;;4.54;100.00;100369.28;4988178;28;20117;-59
2021/12/18 00:37:53;;;;;;;11.07;7.43;;;;;;;4.52;100.00;100365.81;4991085;28;20021;-59
2021/12/18 00:40:23;;;;;;;11.17;6.87;;;;;;;4.53;100.00;100372.63;4990276;28;20034;-58
2021/12/18 00:42:57;;;;;;;13.87;8.60;;;;;;;4.56;100.00;100365.97;4993720;28;20569;-59
2021/12/18 00:45:23;;;;;;;14.90;7.27;;;;;;;4.59;100.00;100363.53;4989131;28;20033;-58
2021/12/18 00:47:48;;;;;;;13.63;7.23;;;;;;;4.61;100.00;100366.13;4987350;28;20041;-59
2021/12/18 00:50:26;;;;;;;13.37;7.83;;;;;;;4.62;100.00;100370.41;4993307;28;20044;-60
2021/12/18 00:52:51;;;;;;;11.93;7.53;;;;;;;4.58;100.00;100366.03;4996009;28;20022;-60
2021/12/18 00:55:20;;;;;;;13.10;8.00;;;;;;;4.64;100.00;100367.91;4974292;28;20060;-60
2021/12/18 00:57:47;;;;;;;11.90;7.50;;;;;;;4.60;100.00;100355.09;4993001;28;20117;-59
2021/12/18 01:00:22;;;;;;;13.90;7.97;;;;;;;4.71;100.00;100349.53;4993767;28;20441;-60
2021/12/18 01:02:50;;;;;;;12.50;7.10;;;;;;;4.61;100.00;100355.97;4995937;28;20113;-60
2021/12/18 01:05:16;;;;;;;16.00;7.67;;;;;;;4.57;100.00;100364.31;4989521;28;20089;-60
2021/12/18 01:07:41;;;;;;;12.93;7.30;;;;;;;4.62;100.00;100359.38;4997807;28;20412;-58
2021/12/18 01:12:42;;;;;;;15.07;7.33;;;;;;;4.54;100.00;100365.06;4997586;28;20049;-59
2021/12/18 01:15:26;;;;;;;12.43;6.97;;;;;;;4.57;100.00;100355.00;4993169;28;20033;-60
2021/12/18 01:23:22;;;;;;;9.63;6.55;;;;;;;4.48;100.00;100364.88;4997704;28;20060;-60
2021/12/18 01:25:48;;;;;;;11.77;6.40;;;;;;;4.56;100.00;100360.91;4990805;28;20042;-60
2021/12/18 01:28:14;;;;;;;9.40;6.30;;;;;;;4.59;100.00;100357.59;4993081;28;20033;-59
2021/12/18 01:30:40;;;;;;;8.57;5.57;;;;;;;4.52;100.00;100345.50;4993233;28;20113;-60
2021/12/18 01:33:05;;;;;;;10.60;6.67;;;;;;;4.54;100.00;100347.28;4996359;28;20343;-60
2021/12/18 01:35:31;;;;;;;9.50;5.90;;;;;;;4.58;100.00;100363.50;4990810;28;20699;-59
2021/12/18 01:37:57;;;;;;;9.63;5.63;;;;;;;4.65;100.00;100367.09;4995282;28;20030;-60
2021/12/18 01:40:24;;;;;;;7.93;5.87;;;;;;;4.68;100.00;100360.44;4991858;28;20022;-57
2021/12/18 01:51:25;;;;;;;10.40;5.93;;;;;;;4.72;100.00;100379.16;4965875;28;20113;-57
2021/12/18 01:53:54;;;;;;;11.23;5.87;;;;;;;4.75;100.00;100377.63;4959318;28;20078;-57
2021/12/18 01:56:22;;;;;;;11.00;4.87;;;;;;;4.77;100.00;100377.63;4963429;28;20039;-60
2021/12/18 01:58:48;;;;;;;10.33;5.77;;;;;;;4.83;100.00;100390.56;4964109;28;20424;-60
2021/12/18 02:01:15;;;;;;;9.07;5.87;;;;;;;4.85;100.00;100378.75;4962577;28;20544;-60
2021/12/18 02:03:40;;;;;;;9.80;5.43;;;;;;;4.80;100.00;100386.22;4960261;28;20034;-59
2021/12/18 02:06:06;;;;;;;6.00;5.03;;;;;;;4.79;100.00;100384.50;4964524;28;20038;-59
2021/12/18 02:08:34;;;;;;;11.40;6.50;;;;;;;4.83;100.00;100381.25;4964527;28;20118;-58
2021/12/18 02:11:13;;;;;;;10.37;5.40;;;;;;;4.78;100.00;100382.78;4962337;28;20319;-59
2021/12/18 02:21:56;;;;;;;10.57;5.80;;;;;;;4.75;100.00;100375.06;4961367;28;20060;-59
2021/12/18 02:24:24;;;;;;;10.50;6.10;;;;;;;4.75;100.00;100384.38;4966016;28;20073;-59
2021/12/18 02:26:50;;;;;;;11.23;5.90;;;;;;;4.70;100.00;100381.69;4974184;28;20408;-57
2021/12/18 02:29:16;;;;;;;9.50;6.27;;;;;;;4.66;100.00;100378.97;4970702;28;20030;-59
2021/12/18 02:31:43;;;;;;;9.23;6.03;;;;;;;4.62;100.00;100374.63;4970467;28;20030;-60
2021/12/18 02:34:28;;;;;;;8.40;5.63;;;;;;;4.62;100.00;100392.41;4974368;28;20041;-59
2021/12/18 02:36:59;;;;;;;15.17;6.77;;;;;;;4.57;100.00;100377.00;4974554;28;20477;-59
2021/12/18 02:39:42;;;;;;;9.73;6.30;;;;;;;4.61;100.00;100378.84;4978793;28;20052;-60
2021/12/18 02:42:10;;;;;;;7.53;5.57;;;;;;;4.64;100.00;100388.22;4984571;28;20038;-59
2021/12/18 02:44:39;;;;;;;12.43;6.67;;;;;;;4.60;100.00;100397.41;4972504;28;20046;-60
2021/12/18 02:47:05;;;;;;;9.67;6.53;;;;;;;4.60;100.00;100389.78;4972885;28;20154;-60
2021/12/18 02:49:31;;;;;;;9.87;5.80;;;;;;;4.63;100.00;100396.63;4971534;28;20189;-59
2021/12/18 02:51:56;;;;;;;9.67;5.83;;;;;;;4.55;100.00;100417.56;4970496;28;20082;-59
2021/12/18 02:54:22;;;;;;;10.97;6.60;;;;;;;4.56;100.00;100401.53;4974371;28;20519;-59
2021/12/18 02:56:47;;;;;;;10.50;6.40;;;;;;;4.52;100.00;100409.88;4973993;28;20042;-59
2021/12/18 02:59:12;;;;;;;11.80;6.73;;;;;;;4.49;100.00;100404.69;4968956;28;20039;-58
2021/12/18 03:01:40;;;;;;;11.93;6.67;;;;;;;4.49;100.00;100399.63;4977137;28;20058;-59
2021/12/18 03:04:27;;;;;;;8.57;5.50;;;;;;;4.50;100.00;100408.06;4973508;28;20101;-60
2021/12/18 03:06:58;;;;;;;9.07;6.13;;;;;;;4.47;100.00;100386.00;4972384;28;20034;-59
2021/12/18 03:25:23;;;;;;;8.37;5.10;;;;;;;4.46;100.00;100396.94;4972039;28;20113;-58
2021/12/18 03:27:49;;;;;;;9.80;5.60;;;;;;;4.46;100.00;100398.63;4969305;28;20042;-58
2021/12/18 03:30:15;;;;;;;8.63;5.93;;;;;;;4.42;100.00;100420.50;4970391;28;20488;-59
2021/12/18 03:32:41;;;;;;;10.50;7.03;;;;;;;4.43;100.00;100409.56;4973187;28;20035;-57
2021/12/18 03:35:08;;;;;;;10.03;6.17;;;;;;;4.43;100.00;100409.56;4970490;28;20034;-59
2021/12/18 03:37:34;;;;;;;11.70;5.93;;;;;;;4.43;100.00;100409.56;4968047;28;20126;-59
2021/12/18 03:40:02;;;;;;;8.57;6.03;;;;;;;4.40;100.00;100416.22;4969801;28;20041;-59
2021/12/18 03:42:27;;;;;;;9.03;5.47;;;;;;;4.38;100.00;100422.88;4974115;28;20195;-58
2021/12/18 03:44:52;;;;;;;11.07;6.10;;;;;;;4.34;100.00;100404.16;4969687;28;20073;-58
2021/12/18 03:47:18;;;;;;;11.43;6.57;;;;;;;4.30;100.00;100409.94;4968234;28;20046;-59
2021/12/18 03:49:43;;;;;;;12.80;7.50;;;;;;;4.34;100.00;100416.84;4970377;28;20547;-59
2021/12/18 03:52:09;;;;;;;11.10;6.73;;;;;;;4.31;100.00;100416.75;4972174;28;20337;-59
2021/12/18 03:54:34;;;;;;;9.70;5.43;;;;;;;4.34;100.00;100411.78;4969345;28;20065;-58
2021/12/18 03:57:00;;;;;;;10.87;6.43;;;;;;;4.29;100.00;100403.13;4968725;28;20046;-58
2021/12/18 03:59:26;;;;;;;11.90;7.27;;;;;;;4.24;100.00;100412.28;4969807;28;20561;-57
2021/12/18 04:01:51;;;;;;;11.63;6.70;;;;;;;4.21;100.00;100408.75;4988733;28;20084;-60
2021/12/18 04:04:17;;;;;;;10.67;7.27;;;;;;;4.17;100.00;100409.47;4989412;28;20236;-60
2021/12/18 04:06:43;;;;;;;11.63;7.27;;;;;;;4.21;100.00;100409.63;4988089;28;20065;-60
2021/12/18 04:09:13;;;;;;;13.67;7.17;;;;;;;4.33;100.00;100419.34;4990534;28;20026;-60
2021/12/18 04:11:40;;;;;;;12.63;7.60;;;;;;;4.23;100.00;100418.16;4992475;28;20026;-60
2021/12/18 04:14:05;;;;;;;11.50;7.07;;;;;;;4.10;100.00;100411.78;4988112;28;20444;-58
2021/12/18 04:16:32;;;;;;;11.33;6.97;;;;;;;4.13;100.00;100428.78;4987422;28;20038;-58
2021/12/18 04:18:58;;;;;;;10.40;6.33;;;;;;;4.10;100.00;100414.34;4991190;28;20042;-59
2021/12/18 04:21:23;;;;;;;10.70;6.90;;;;;;;4.12;100.00;100416.91;4990956;28;20064;-58
2021/12/18 04:23:49;;;;;;;9.70;6.30;;;;;;;4.10;100.00;100416.00;4988789;28;20126;-57
2021/12/18 04:26:14;;;;;;;10.30;7.20;;;;;;;4.16;100.00;100423.81;4987264;28;20038;-58
2021/12/18 04:28:40;;;;;;;11.27;7.80;;;;;;;4.18;100.00;100428.97;4991884;28;20108;-58
2021/12/18 04:31:05;;;;;;;13.70;7.93;;;;;;;4.03;100.00;100421.69;4990314;28;20120;-58
2021/12/18 04:33:30;;;;;;;12.83;7.63;;;;;;;4.00;100.00;100419.88;4988799;28;20204;-59
2021/12/18 04:35:56;;;;;;;12.27;6.60;;;;;;;4.11;100.00;100418.59;4986831;28;20665;-59
2021/12/18 04:38:22;;;;;;;10.00;6.97;;;;;;;4.06;100.00;100416.72;4991744;28;20034;-61
2021/12/18 04:40:49;;;;;;;11.60;7.63;;;;;;;4.14;100.00;100422.91;4995378;28;20128;-59
2021/12/18 04:43:15;;;;;;;9.43;6.57;;;;;;;4.05;100.00;100428.53;4990453;28;20034;-59
2021/12/18 04:45:40;;;;;;;11.03;6.57;;;;;;;3.98;100.00;100431.66;4991274;28;20086;-58
2021/12/18 04:48:05;;;;;;;15.27;7.33;;;;;;;3.99;100.00;100435.03;4995422;28;20375;-58
2021/12/18 04:50:31;;;;;;;13.93;8.27;;;;;;;3.95;100.00;100436.59;4993491;28;20085;-59
2021/12/18 04:52:56;;;;;;;12.27;7.80;;;;;;;3.86;100.00;100446.41;4990966;28;20029;-59
2021/12/18 04:55:22;;;;;;;11.73;6.97;;;;;;;3.81;100.00;100442.88;4992162;28;20034;-58
2021/12/18 04:57:47;;;;;;;13.07;9.30;;;;;;;3.82;100.00;100443.75;4994988;28;20665;-59
2021/12/18 05:00:16;;;;;;;13.43;7.73;;;;;;;3.80;100.00;100451.28;4992570;28;20084;-59
2021/12/18 05:02:43;;;;;;;16.10;9.90;;;;;;;3.86;100.00;100445.56;4992040;28;20378;-60
2021/12/18 05:05:15;;;;;;;14.60;8.43;;;;;;;3.87;100.00;100462.50;4992161;28;20034;-60
2021/12/18 05:07:41;;;;;;;14.50;8.27;;;;;;;3.72;100.00;100439.13;4993340;28;20255;-59
2021/12/18 05:10:09;;;;;;;16.87;9.27;;;;;;;3.71;100.00;100452.59;4992865;28;20041;-60
2021/12/18 05:12:34;;;;;;;14.50;9.27;;;;;;;3.70;100.00;100456.81;4991553;28;20037;-59
2021/12/18 05:15:00;;;;;;;12.40;8.30;;;;;;;3.69;100.00;100453.41;4990840;28;20038;-59
2021/12/18 05:17:25;;;;;;;15.90;8.50;;;;;;;3.70;100.00;100451.72;4993243;28;20038;-59
2021/12/18 05:19:52;;;;;;;14.40;8.57;;;;;;;3.74;100.00;100452.72;4992874;28;20026;-60
2021/12/18 05:22:17;;;;;;;17.43;10.17;;;;;;;3.65;100.00;100455.75;4991790;28;20033;-58
2021/12/18 05:24:43;;;;;;;13.43;8.80;;;;;;;3.61;100.00;100453.91;4992560;28;20037;-59
2021/12/18 05:27:08;;;;;;;14.40;9.07;;;;;;;3.59;100.00;100470.75;4993018;28;20038;-60
2021/12/18 05:29:33;;;;;;;18.00;9.40;;;;;;;3.56;100.00;100453.78;4997152;28;20033;-58
2021/12/18 05:31:59;;;;;;;13.00;7.73;;;;;;;3.54;100.00;100447.75;4995472;28;20484;-60
2021/12/18 05:34:26;;;;;;;13.30;9.70;;;;;;;3.53;100.00;100450.22;4996697;28;20038;-60
2021/12/18 05:39:29;;;;;;;16.17;8.50;;;;;;;3.56;100.00;100442.75;4990839;28;20038;-59
2021/12/18 05:41:56;;;;;;;16.80;9.53;;;;;;;3.52;100.00;100451.06;4992513;28;20335;-58
2021/12/18 05:44:24;;;;;;;15.57;8.70;;;;;;;3.56;100.00;100466.44;4991173;28;20026;-59
2021/12/18 05:46:50;;;;;;;14.97;8.03;;;;;;;3.44;100.00;100460.88;4991617;28;20065;-58
2021/12/18 05:49:16;;;;;;;15.53;9.33;;;;;;;3.46;100.00;100454.22;4994297;28;20030;-59
2021/12/18 05:51:45;;;;;;;18.23;9.30;;;;;;;3.33;100.00;100476.50;4993214;28;20120;-58
2021/12/18 05:54:11;;;;;;;15.23;8.97;;;;;;;3.36;100.00;100482.53;4996133;28;20061;-58
2021/12/18 05:56:37;;;;;;;16.67;9.63;;;;;;;3.36;100.00;100477.47;4994277;28;20088;-59
2021/12/18 05:59:04;;;;;;;15.83;9.03;;;;;;;3.37;100.00;100489.34;4989512;28;20034;-59
2021/12/18 06:01:29;;;;;;;15.43;8.20;;;;;;;3.37;100.00;100491.88;4992478;28;20459;-58
2021/12/18 06:03:55;;;;;;;14.07;8.80;;;;;;;3.33;100.00;100486.63;4996451;28;20041;-57
2021/12/18 06:06:22;;;;;;;15.77;8.30;;;;;;;3.33;100.00;100491.69;4993170;28;20096;-59
2021/12/18 06:08:48;;;;;;;12.33;8.27;;;;;;;3.29;100.00;100499.97;4992585;28;20034;-59
2021/12/18 06:11:16;;;;;;;13.47;7.50;;;;;;;3.24;100.00;100497.25;4992725;28;20058;-59
2021/12/18 06:13:50;;;;;;;13.23;8.53;;;;;;;3.25;100.00;100493.94;4994351;28;20123;-59
2021/12/18 06:16:18;;;;;;;14.75;7.50;;;;;;;3.25;100.00;100493.06;4990058;28;20030;-60
2021/12/18 06:18:45;;;;;;;12.97;7.87;;;;;;;3.22;100.00;100487.06;4988111;28;20042;-59
2021/12/18 06:21:13;;;;;;;14.17;8.27;;;;;;;3.35;100.00;100480.84;4992498;28;20034;-58
2021/12/18 06:23:39;;;;;;;13.13;8.63;;;;;;;3.34;100.00;100480.75;4994345;28;20119;-58
2021/12/18 06:26:05;;;;;;;13.30;7.93;;;;;;;3.30;100.00;100484.84;4990868;28;20042;-59
2021/12/18 06:28:30;;;;;;;11.23;7.63;;;;;;;3.28;100.00;100486.44;4989675;28;20161;-58
2021/12/18 06:30:56;;;;;;;13.00;7.37;;;;;;;3.33;100.00;100484.97;4993203;28;20505;-58
2021/12/18 06:33:21;;;;;;;13.67;7.77;;;;;;;3.17;100.00;100478.44;4995293;28;20095;-60
2021/12/18 06:35:46;;;;;;;16.73;8.97;;;;;;;3.24;100.00;100497.25;4989170;28;20073;-60
2021/12/18 06:38:12;;;;;;;14.33;8.73;;;;;;;3.27;100.00;100483.88;4989805;28;20111;-59
2021/12/18 06:40:38;;;;;;;12.77;7.93;;;;;;;3.17;100.00;100468.28;4992992;28;20040;-58
2021/12/18 06:43:03;;;;;;;16.73;8.63;;;;;;;3.21;100.00;100485.34;4992992;28;20026;-59
2021/12/18 06:45:29;;;;;;;13.13;7.53;;;;;;;3.28;100.00;100481.38;4989891;28;20499;-58
2021/12/18 06:47:55;;;;;;;15.13;7.53;;;;;;;3.25;100.00;100480.41;4990697;28;20745;-59
2021/12/18 06:50:21;;;;;;;16.63;8.03;;;;;;;3.21;100.00;100484.47;4993023;28;20030;-58
2021/12/18 06:52:47;;;;;;;13.80;8.23;;;;;;;3.23;100.00;100491.31;4992929;28;20038;-59
2021/12/18 06:55:13;;;;;;;17.87;7.93;;;;;;;3.21;100.00;100502.22;4989837;28;20034;-61
2021/12/18 06:57:39;;;;;;;12.30;7.23;;;;;;;3.08;100.00;100500.00;4990442;28;20077;-59
2021/12/18 07:00:07;;;;;;;11.30;7.80;;;;;;;3.25;100.00;100510.81;4992560;28;20061;-59
2021/12/18 07:02:33;;;;;;;14.50;7.63;;;;;;;3.16;100.00;100502.03;4990229;28;20117;-59
2021/12/18 07:04:58;;;;;;;14.40;7.27;;;;;;;3.21;100.00;100492.94;4988745;28;20064;-60
2021/12/18 07:07:24;;;;;;;14.67;8.13;;;;;;;3.18;100.00;100499.56;4989794;28;20029;-59
2021/12/18 07:09:50;;;;;;;13.10;8.17;;;;;;;3.17;100.00;100508.84;4982842;28;20098;-59
2021/12/18 07:12:16;;;;;;;17.00;8.13;;;;;;;3.23;100.00;100515.81;4991774;28;20042;-59
2021/12/18 07:14:41;;;;;;;16.43;8.40;;;;;;;3.29;100.00;100511.00;4989039;28;20108;-60
2021/12/18 07:17:07;;;;;;;20.10;8.77;;;;;;;3.35;100.00;100507.84;4991834;28;20231;-60
2021/12/18 07:19:32;;;;;;;12.70;7.67;;;;;;;3.37;100.00;100517.22;4995362;28;20037;-59
2021/12/18 07:21:58;;;;;;;14.10;8.27;;;;;;;3.40;100.00;100513.94;4991905;28;20035;-58
2021/12/18 07:24:23;;;;;;;11.93;7.80;;;;;;;3.38;100.00;100513.03;4988759;28;20027;-58
2021/12/18 07:26:49;;;;;;;11.93;7.17;;;;;;;3.42;100.00;100500.53;4989065;28;20037;-57
2021/12/18 07:29:14;;;;;;;13.20;7.77;;;;;;;3.46;100.00;100504.91;4988189;28;20065;-59
2021/12/18 07:31:40;;;;;;;15.70;9.40;;;;;;;3.44;100.00;100492.97;4990885;28;20200;-57
2021/12/18 07:34:05;;;;;;;13.33;8.30;;;;;;;3.50;100.00;100496.63;4988489;28;20038;-58
2021/12/18 07:36:31;;;;;;;14.47;8.33;;;;;;;3.48;100.00;100482.19;4990450;28;20475;-58
2021/12/18 07:38:56;;;;;;;12.53;7.77;;;;;;;3.55;100.00;100476.53;4990522;28;20030;-60
2021/12/18 07:41:22;;;;;;;13.50;7.80;;;;;;;3.53;100.00;100463.78;4986399;28;20019;-60
2021/12/18 07:43:49;;;;;;;14.73;9.13;;;;;;;3.61;100.00;100481.81;4986849;28;20038;-60
2021/12/18 07:46:15;;;;;;;16.00;8.77;;;;;;;3.63;100.00;100480.22;4990648;28;20022;-60
2021/12/18 07:48:40;;;;;;;10.67;7.37;;;;;;;3.63;100.00;100481.09;4995477;28;20032;-59
2021/12/18 07:51:06;;;;;;;12.17;8.07;;;;;;;3.65;100.00;100469.31;4988219;28;20048;-61
2021/12/18 07:53:32;;;;;;;14.23;8.13;;;;;;;3.64;100.00;100472.69;4989064;28;20022;-62
2021/12/18 07:55:57;;;;;;;10.83;7.67;;;;;;;3.74;100.00;100465.38;4991685;28;20573;-62
2021/12/18 07:58:23;;;;;;;12.33;7.03;;;;;;;3.72;100.00;100457.75;4994476;28;20034;-62
2021/12/18 08:00:48;;;;;;;13.37;7.90;;;;;;;3.82;100.00;100458.97;4988354;28;20395;-61
2021/12/18 08:03:14;;;;;;;11.77;7.73;;;;;;;3.82;100.00;100451.34;4987747;28;20028;-59
2021/12/18 08:05:39;;;;;;;13.53;7.87;;;;;;;3.89;100.00;100451.63;4998546;28;20032;-60
2021/12/18 08:08:05;;;;;;;14.17;7.90;;;;;;;3.88;100.00;100459.16;4992485;28;20038;-61
2021/12/18 08:10:30;;;;;;;14.30;8.33;;;;;;;3.92;100.00;100456.81;4988267;28;20262;-61
2021/12/18 08:12:56;;;;;;;15.13;8.17;;;;;;;3.98;100.00;100467.19;4988501;28;20034;-60
2021/12/18 08:15:21;;;;;;;12.20;7.40;;;;;;;4.06;100.00;100470.88;4987885;28;20026;-60
2021/12/18 08:17:47;;;;;;;11.70;7.17;;;;;;;4.09;100.00;100467.56;4989633;28;20038;-61
2021/12/18 08:20:12;;;;;;;11.10;6.77;;;;;;;4.07;100.00;100466.66;4989821;28;20515;-61
2021/12/18 08:22:38;;;;;;;11.97;7.27;;;;;;;4.14;100.00;100458.44;4991973;28;20042;-60
2021/12/18 08:25:06;;;;;;;9.70;6.27;;;;;;;4.24;100.00;100479.94;4995891;28;20045;-59
2021/12/18 08:27:32;;;;;;;10.43;7.07;;;;;;;4.26;100.00;100468.16;4996100;28;20511;-61
2021/12/18 08:29:58;;;;;;;10.00;6.47;;;;;;;4.28;100.00;100477.59;4994874;28;20029;-60
2021/12/18 08:32:23;;;;;;;11.23;6.93;;;;;;;4.41;100.00;100472.09;4992303;28;20689;-60
2021/12/18 08:34:49;;;;;;;10.03;6.23;;;;;;;4.44;100.00;100466.28;4995197;28;20044;-61
2021/12/18 08:37:14;;;;;;;12.80;6.80;;;;;;;4.33;100.00;100475.22;4988356;28;20045;-61
2021/12/18 08:39:40;;;;;;;12.23;6.50;;;;;;;4.35;100.00;100468.50;4978297;28;20030;-59
2021/12/18 08:42:06;;;;;;;9.97;6.40;;;;;;;4.31;100.00;100462.44;4991611;28;20128;-59
2021/12/18 08:44:32;;;;;;;9.43;6.07;;;;;;;4.43;100.00;100467.09;4993620;28;20296;-60
2021/12/18 08:46:58;;;;;;;10.20;6.27;;;;;;;4.45;100.00;100456.19;4994645;28;20088;-61
2021/12/18 08:49:25;;;;;;;8.13;6.13;;;;;;;4.52;100.00;100473.34;4986528;28;20130;-59
2021/12/18 08:51:51;;;;;;;10.17;5.90;;;;;;;4.46;100.00;100472.25;4991760;28;20030;-61
2021/12/18 08:54:16;;;;;;;9.23;5.43;;;;;;;4.50;100.00;100484.25;4991268;28;20064;-60
2021/12/18 08:56:42;;;;;;;8.97;6.80;;;;;;;4.52;100.00;100482.66;4997102;28;20049;-59
2021/12/18 08:59:07;;;;;;;7.40;5.40;;;;;;;4.58;100.00;100504.03;4990590;28;20039;-60
2021/12/18 09:01:33;;;;;;;9.43;6.53;;;;;;;4.55;100.00;100493.78;4992437;28;20626;-60
2021/12/18 09:03:58;;;;;;;11.43;6.80;;;;;;;4.73;100.00;100485.94;4991755;28;20030;-60
2021/12/18 09:06:24;;;;;;;10.80;6.33;;;;;;;4.72;100.00;100490.94;4989453;28;20153;-61
2021/12/18 09:08:51;;;;;;;9.40;5.97;;;;;;;4.82;100.00;100476.06;4990814;28;20046;-60
2021/12/18 09:11:17;;;;;;;11.07;6.03;;;;;;;4.87;100.00;100483.84;4987696;28;20053;-61
2021/12/18 09:13:42;;;;;;;8.40;5.40;;;;;;;4.89;100.00;100478.00;4992241;28;20543;-60
2021/12/18 09:16:08;;;;;;;9.53;6.20;;;;;;;4.90;100.00;100461.06;4988064;28;20197;-62
2021/12/18 09:18:33;;;;;;;7.43;5.37;;;;;;;4.96;100.00;100471.47;4996893;28;20113;-62
2021/12/18 09:21:02;;;;;;;8.53;5.40;;;;;;;5.00;100.00;100463.97;4988600;28;20299;-61
2021/12/18 09:23:27;;;;;;;10.80;5.83;;;;;;;5.03;100.00;100458.13;4991469;28;20037;-61
2021/12/18 09:25:53;;;;;;;7.40;5.77;;;;;;;4.99;100.00;100486.78;4984755;28;20045;-60
2021/12/18 09:28:18;;;;;;;8.90;5.33;;;;;;;5.01;100.00;100441.94;4997690;28;20658;-61
2021/12/18 09:30:44;;;;;;;8.07;4.87;;;;;;;4.95;100.00;100429.06;4995136;28;20033;-61
2021/12/18 09:33:12;;;;;;;12.20;6.23;;;;;;;4.95;100.00;100444.31;4994565;28;20049;-61
2021/12/18 09:35:38;;;;;;;9.33;5.50;;;;;;;5.06;100.00;100443.84;4992627;28;20471;-61
2021/12/18 09:38:05;;;;;;;9.33;5.70;;;;;;;5.09;100.00;100437.13;4996564;28;20029;-61
2021/12/18 09:40:31;;;;;;;6.83;5.33;;;;;;;5.00;100.00;100432.63;4994114;28;20029;-59
2021/12/18 09:42:57;;;;;;;7.50;4.97;;;;;;;5.00;100.00;100458.03;5000302;28;20044;-59
2021/12/18 09:45:23;;;;;;;9.27;4.83;;;;;;;5.12;100.00;100448.25;4999936;28;20113;-61
2021/12/18 09:47:49;;;;;;;11.83;5.57;;;;;;;5.15;100.00;100432.22;5001101;28;20361;-60
2021/12/18 09:50:17;;;;;;;7.67;5.47;;;;;;;5.25;100.00;100431.72;5003618;28;20056;-61
2021/12/18 09:52:43;;;;;;;9.40;6.00;;;;;;;5.28;99.48;100434.34;4997060;28;20056;-59
2021/12/18 09:55:10;;;;;;;8.27;5.47;;;;;;;5.21;99.32;100429.88;5002982;28;20058;-61
2021/12/18 09:57:36;;;;;;;10.33;6.60;;;;;;;5.18;99.44;100420.47;5000896;28;20038;-60
2021/12/18 10:00:05;;;;;;;8.40;6.60;;;;;;;5.34;99.78;100404.03;4994360;28;20062;-61
2021/12/18 10:02:31;;;;;;;9.23;5.90;;;;;;;5.36;98.68;100405.78;4999883;28;20084;-59
2021/12/18 10:04:57;;;;;;;9.33;5.70;;;;;;;5.36;98.61;100408.31;5008641;28;20029;-61
2021/12/18 10:07:27;;;;;;;9.83;5.63;;;;;;;5.37;96.95;100407.50;5003528;28;20021;-61
2021/12/18 10:09:57;;;;;;;14.33;6.97;;;;;;;5.45;97.22;100402.66;4998171;28;20041;-61
2021/12/18 10:12:32;;;;;;;6.77;4.63;;;;;;;5.52;95.11;100410.50;4987650;28;20062;-62
2021/12/18 10:15:13;;;;;;;11.10;6.00;;;;;;;5.53;96.38;100396.97;4975529;28;20122;-60
2021/12/18 10:17:42;;;;;;;12.37;6.80;;;;;;;5.58;95.11;100386.06;4974752;28;20410;-62
2021/12/18 10:20:10;;;;;;;6.03;4.43;;;;;;;5.43;94.91;100405.13;4988170;28;20760;-62
2021/12/18 10:22:49;;;;;;;8.93;5.43;;;;;;;5.38;96.31;100393.13;4992829;28;20049;-60
2021/12/18 10:25:26;;;;;;;8.67;5.33;;;;;;;5.46;96.07;100397.63;4987460;28;20366;-62
2021/12/18 10:28:14;;;;;;;10.53;6.10;;;;;;;5.51;97.35;100395.22;4987937;28;20061;-61
2021/12/18 10:30:58;;;;;;;9.93;5.70;;;;;;;5.27;97.08;100392.78;4986322;28;20045;-61
2021/12/18 10:33:28;;;;;;;10.03;6.20;;;;;;;5.37;98.58;100394.81;4968843;28;20042;-60
2021/12/18 10:35:59;;;;;;;10.67;5.93;;;;;;;5.24;97.63;100396.91;4975760;28;20054;-61
2021/12/18 10:38:50;;;;;;;10.37;5.57;;;;;;;5.31;96.96;100409.84;4971816;28;20037;-60
2021/12/18 10:41:35;;;;;;;11.20;5.87;;;;;;;5.32;97.82;100380.22;4974702;28;20049;-56
2021/12/18 10:44:03;;;;;;;;;;;;;;;5.28;97.71;100391.97;4979865;28;20038;-62
2021/12/18 10:46:30;;;;;;;8.00;5.70;;;;;;;5.25;97.51;100413.91;4972900;28;19917;-61
2021/12/18 10:48:58;;;;;;;9.27;6.00;;;;;;;5.31;96.45;100402.22;4972792;28;20034;-61
2021/12/18 10:51:24;;;;;;;12.50;6.80;;;;;;;5.47;96.25;100390.88;4976013;28;20100;-61
2021/12/18 10:54:16;;;;;;;8.20;6.03;;;;;;;5.47;95.92;100388.31;4974326;28;20046;-61
2021/12/18 10:56:47;;;;;;;10.60;6.27;;;;;;;5.33;98.08;100390.44;4971097;28;20545;-58
2021/12/18 10:59:27;;;;;;;9.87;5.67;;;;;;;5.37;98.03;100376.13;4968581;28;20524;-60
2021/12/18 11:01:55;;;;;;;8.17;5.63;;;;;;;5.19;95.97;100368.81;4974510;28;20058;-60
2021/12/18 11:04:33;;;;;;;9.57;6.27;;;;;;;5.26;97.29;100373.25;4974385;28;20054;-60
2021/12/18 11:07:15;;;;;;;14.30;6.30;;;;;;;5.30;95.81;100370.03;4973671;28;20085;-60
2021/12/18 11:09:46;;;;;;;10.50;6.50;;;;;;;5.43;96.17;100364.44;4973981;28;20383;-61
2021/12/18 11:14:55;;;;;;;10.83;6.73;;;;;;;5.51;94.44;100349.44;4970385;28;20080;-61
2021/12/18 11:17:21;;;;;;;9.50;5.63;;;;;;;5.52;94.08;100349.47;4973349;28;20030;-61
2021/12/18 11:19:46;;;;;;;8.90;5.90;;;;;;;5.61;95.15;100327.63;4974399;28;20093;-61
2021/12/18 11:22:17;;;;;;;8.73;6.00;;;;;;;5.65;94.10;100329.44;4971700;28;20031;-61
2021/12/18 11:25:01;;;;;;;10.40;6.57;;;;;;;5.79;92.79;100320.53;4968327;28;20066;-61
2021/12/18 11:27:31;;;;;;;10.17;6.20;;;;;;;5.72;92.66;100333.91;4966994;28;20035;-60
2021/12/18 11:30:01;;;;;;;8.10;5.60;;;;;;;5.56;91.33;100304.59;4973664;28;20035;-60
2021/12/18 11:32:33;;;;;;;8.27;5.53;;;;;;;5.55;92.32;100312.22;4985276;28;20049;-58
2021/12/18 11:35:03;;;;;;;10.80;5.73;;;;;;;5.55;93.75;100317.31;4991214;28;20030;-60
2021/12/18 11:37:35;;;;;;;9.70;5.37;;;;;;;5.46;93.79;100320.47;4998714;28;20029;-60
2021/12/18 11:40:04;;;;;;;8.40;5.47;;;;;;;5.48;93.17;100306.94;4996594;28;20513;-60
2021/12/18 11:42:32;;;;;;;10.73;6.13;;;;;;;5.45;93.83;100291.63;4996759;28;20032;-59
2021/12/18 11:45:01;;;;;;;9.40;5.70;;;;;;;5.50;93.36;100279.88;4987375;28;20030;-59
2021/12/18 11:47:53;;;;;;;9.30;5.23;;;;;;;5.56;93.28;100280.88;4988337;28;20272;-59
2021/12/18 11:50:33;;;;;;;8.80;5.80;;;;;;;5.48;92.67;100280.66;4992072;28;20038;-58
2021/12/18 11:53:17;;;;;;;8.93;5.77;;;;;;;5.60;92.29;100270.81;4985656;28;20507;-59
2021/12/18 11:55:49;;;;;;;7.27;5.20;;;;;;;5.56;91.25;100263.06;4987043;28;20618;-59
2021/12/18 11:58:17;;;;;;;8.77;5.40;;;;;;;5.58;91.25;100271.59;4990080;28;20088;-60
2021/12/18 12:00:51;;;;;;;8.20;5.30;;;;;;;5.57;90.99;100265.63;4987458;28;20052;-60
2021/12/18 12:03:54;;;;;;;9.83;6.17;;;;;;;5.66;90.81;100254.84;4985483;28;20332;-60
2021/12/18 12:06:30;;;;;;;8.43;5.43;;;;;;;5.61;88.99;100259.81;4992718;28;20470;-57
2021/12/18 12:09:33;;;;;;;10.97;5.73;;;;;;;5.67;89.38;100259.13;4994633;28;20153;-59
2021/12/18 12:12:04;;;;;;;7.83;4.67;;;;;;;5.66;87.19;100237.91;4986921;28;20648;-58